»·PEaware :: PRD69 KTEX-KABQ

PRD69 :: KTEX-KABQ

FLIGHT INFORMATION

Flight Status: Arrived
Operator: Unknown
More flights by this operator :: More flights under this callsign
Pilot: Ian G. (41107)
Aircraft: Cessna 525C Citation CJ4
(C25C)
More flights by this aircraft type
Origin: KTEX Telluride Regl
United States
Destination: KABQ Albuquerque Intl Sunport
United States
More flights between these airports :: More routes between these airports
Route: RSK TANER CURLY3
File this flight plan on PilotEdge
Remarks: RMK / SIMBRIEF
Altitude:
(Current/Filed)
35,000ft
Speed:
(Current/Filed)
441kts
Departed: 10-May-23 11:11 AM
Arrived: 10-May-23 11:55 AM
Distance/Time
Traveled:
186nm/0:44
Distance/Time
To Go:
Arrived

Flight Plot

Page will automatically refresh every two minutes.

Flight plan parsing failed; only flown route is shown


Map Options




Map Legend


Flown Route
Filed Route
Departure Airport
Arrival Airport
Navaid (VOR, NDB)
Fix

Horizontal Profiles

Position Reports

Time Latitude Longitude Heading Altitude Ground
Speed
10-May-23 11:02 37.955369 -107.901639 82 9064ft 0kts
10-May-23 11:03 37.955369 -107.901639 82 9064ft 0kts
10-May-23 11:04 37.955369 -107.901639 82 9064ft 0kts
10-May-23 11:05 37.955369 -107.901639 82 9064ft 0kts
10-May-23 11:07 37.955369 -107.901639 82 9064ft 0kts
10-May-23 11:08 37.955369 -107.901639 82 9064ft 0kts
10-May-23 11:09 37.954393 -107.902424 194 9064ft 7kts
10-May-23 11:10 37.953307 -107.901237 145 9064ft 0kts
10-May-23 11:11 37.952793 -107.904002 284 9053ft 65kts
10-May-23 11:12 37.967001 -107.960595 282 11609ft 219kts
10-May-23 11:13 37.989185 -108.050455 283 14095ft 311kts
10-May-23 11:14 38.015064 -108.156856 277 17581ft 326kts
10-May-23 11:15 37.974811 -108.243515 194 20969ft 293kts
10-May-23 11:16 37.894219 -108.240229 173 24414ft 294kts
10-May-23 11:17 37.811989 -108.229949 173 27348ft 300kts
10-May-23 11:18 37.729167 -108.219635 173 30470ft 292kts
10-May-23 11:19 37.647724 -108.209475 173 32682ft 295kts
10-May-23 11:20 37.565368 -108.199244 174 34592ft 300kts
10-May-23 11:21 37.476382 -108.188221 174 34856ft 344kts
10-May-23 11:22 37.376442 -108.175842 174 34860ft 377kts
10-May-23 11:23 37.268811 -108.162569 175 34850ft 396kts
10-May-23 11:24 37.159602 -108.149120 175 34852ft 388kts
10-May-23 11:25 37.053689 -108.136143 175 34823ft 382kts
10-May-23 11:26 36.946354 -108.123035 175 34859ft 391kts
10-May-23 11:27 36.837336 -108.109717 175 34905ft 396kts
10-May-23 11:28 36.729375 -108.079616 160 34910ft 405kts
10-May-23 11:29 36.631002 -108.008488 152 34857ft 411kts
10-May-23 11:30 36.533517 -107.933577 152 34790ft 412kts
10-May-23 11:31 36.435929 -107.858792 153 34448ft 402kts
10-May-23 11:31 36.361475 -107.801950 153 32747ft 366kts
10-May-23 11:32 36.274418 -107.735633 153 30718ft 366kts
10-May-23 11:34 36.174100 -107.659415 153 28267ft 359kts
10-May-23 11:35 36.089076 -107.595017 152 26281ft 356kts
10-May-23 11:35 36.017414 -107.540918 152 25452ft 378kts
10-May-23 11:36 35.928048 -107.473474 152 24493ft 376kts
10-May-23 11:37 35.838102 -107.405850 152 23555ft 376kts
10-May-23 11:39 35.733925 -107.327739 152 21752ft 376kts
10-May-23 11:39 35.660820 -107.273070 152 20128ft 368kts
10-May-23 11:40 35.573386 -107.207827 151 18184ft 361kts
10-May-23 11:41 35.492173 -107.147390 152 16410ft 325kts
10-May-23 11:42 35.413542 -107.089050 151 14763ft 337kts
10-May-23 11:43 35.333806 -107.029956 152 12909ft 328kts
10-May-23 11:44 35.265118 -106.979178 152 10969ft 249kts
10-May-23 11:45 35.219816 -106.921742 103 9100ft 261kts
10-May-23 11:46 35.217765 -106.838910 98 8137ft 212kts
10-May-23 11:47 35.205206 -106.781445 137 7239ft 161kts
10-May-23 11:48 35.175778 -106.744960 129 7314ft 148kts
10-May-23 11:49 35.154193 -106.693793 123 7684ft 185kts
10-May-23 11:50 35.131135 -106.637583 128 7395ft 179kts
10-May-23 11:51 35.106034 -106.590386 137 6759ft 154kts
10-May-23 11:52 35.081377 -106.571580 187 6447ft 96kts
10-May-23 11:53 35.055853 -106.589324 216 6000ft 110kts
10-May-23 11:54 35.036456 -106.613444 223 5313ft 38kts
10-May-23 11:55 35.038641 -106.615005 300 5314ft 16kts
10-May-23 11:56 35.038956 -106.618135 92 5315ft 0kts
10-May-23 11:57 35.038956 -106.618135 92 5315ft 0kts

Navigation Log

Ident Type
Flight plan parsing failed, navigation log unavailable